createdAt,value
2022-12-09T00:00:09.526Z,0
2022-12-09T00:01:13.199Z,0
2022-12-09T00:02:18.160Z,0
2022-12-09T00:03:27.301Z,0
2022-12-09T00:04:46.699Z,0
2022-12-09T00:05:51.692Z,0
2022-12-09T00:07:59.330Z,0
2022-12-09T00:10:09.951Z,0
2022-12-09T00:11:12.975Z,0
2022-12-09T00:13:19.845Z,0
2022-12-09T00:15:26.355Z,0
2022-12-09T00:17:34.574Z,0
2022-12-09T00:18:38.694Z,0
2022-12-09T00:20:46.060Z,0
2022-12-09T00:22:52.279Z,0
2022-12-09T00:24:58.905Z,0
2022-12-09T00:26:01.913Z,0
2022-12-09T00:28:08.792Z,0
2022-12-09T00:30:15.472Z,0
2022-12-09T00:31:20.060Z,0
2022-12-09T00:32:23.767Z,0
2022-12-09T00:33:27.365Z,0
2022-12-09T00:35:33.910Z,0
2022-12-09T00:36:37.306Z,0
2022-12-09T00:37:40.883Z,0
2022-12-09T00:38:44.057Z,0
2022-12-09T00:40:50.962Z,0
2022-12-09T00:42:57.912Z,0
2022-12-09T00:44:01.818Z,0
2022-12-09T00:46:10.108Z,0
2022-12-09T00:48:17.436Z,0
2022-12-09T00:50:24.406Z,0
2022-12-09T00:51:27.864Z,0
2022-12-09T00:53:35.847Z,0
2022-12-09T00:55:44.360Z,0
2022-12-09T00:57:51.079Z,0
2022-12-09T00:58:54.469Z,0
2022-12-09T00:59:57.891Z,0
2022-12-09T01:01:02.011Z,0
2022-12-09T01:03:10.522Z,0
2022-12-09T01:05:19.226Z,0
2022-12-09T01:06:23.260Z,0
2022-12-09T01:08:31.552Z,0
2022-12-09T01:10:39.293Z,0
2022-12-09T01:12:46.420Z,0
2022-12-09T01:13:49.973Z,0
2022-12-09T01:15:57.922Z,0
2022-12-09T01:18:06.686Z,0
2022-12-09T01:20:14.258Z,0
2022-12-09T01:21:17.820Z,0
2022-12-09T01:23:25.428Z,0
2022-12-09T01:25:32.347Z,0
2022-12-09T01:27:39.388Z,0
2022-12-09T01:28:44.036Z,0
2022-12-09T01:30:51.570Z,0
2022-12-09T01:32:59.776Z,0
2022-12-09T01:35:06.179Z,0
2022-12-09T01:36:09.730Z,0
2022-12-09T01:38:16.703Z,0
2022-12-09T01:40:23.756Z,0
2022-12-09T01:42:30.881Z,0
2022-12-09T01:43:34.498Z,0
2022-12-09T01:45:41.628Z,0
2022-12-09T01:47:51.264Z,0
2022-12-09T01:49:58.307Z,0
2022-12-09T01:51:01.755Z,0
2022-12-09T01:53:09.897Z,0
2022-12-09T01:55:16.812Z,0
2022-12-09T01:56:20.504Z,0
2022-12-09T01:57:24.522Z,0
2022-12-09T01:58:27.827Z,0
2022-12-09T02:00:35.879Z,0
2022-12-09T02:01:39.304Z,0
2022-12-09T02:02:44.564Z,0
2022-12-09T02:03:50.413Z,0
2022-12-09T02:05:59.377Z,0
2022-12-09T02:07:03.339Z,0
2022-12-09T02:08:07.731Z,0
2022-12-09T02:09:12.140Z,0
2022-12-09T02:11:20.357Z,0
2022-12-09T02:12:24.077Z,0
2022-12-09T02:13:27.410Z,0
2022-12-09T02:14:31.461Z,0
2022-12-09T02:16:40.055Z,0
2022-12-09T02:17:45.346Z,0
2022-12-09T02:19:53.772Z,0
2022-12-09T02:22:00.683Z,0
2022-12-09T02:23:04.486Z,0
2022-12-09T02:25:10.951Z,0
2022-12-09T02:27:18.972Z,0
2022-12-09T02:28:22.347Z,0
2022-12-09T02:30:29.146Z,0
2022-12-09T02:32:40.071Z,0
2022-12-09T02:33:44.342Z,0
2022-12-09T02:35:52.523Z,0
2022-12-09T02:36:57.311Z,0
2022-12-09T02:38:01.563Z,0
2022-12-09T02:39:04.970Z,0
2022-12-09T02:41:14.940Z,0
2022-12-09T02:42:18.731Z,0
2022-12-09T02:44:26.201Z,0
2022-12-09T02:46:33.640Z,0
2022-12-09T02:48:43.741Z,0
2022-12-09T02:49:47.345Z,0
2022-12-09T02:51:54.439Z,0
2022-12-09T02:54:02.640Z,0
2022-12-09T02:56:10.368Z,0
2022-12-09T02:57:13.366Z,0
2022-12-09T02:59:20.746Z,0
2022-12-09T03:01:27.935Z,0
2022-12-09T03:03:39.263Z,0
2022-12-09T03:04:44.385Z,0
2022-12-09T03:06:52.280Z,0
2022-12-09T03:07:56.473Z,0
2022-12-09T03:10:08.191Z,0
2022-12-09T03:12:14.807Z,0
2022-12-09T03:13:18.229Z,0
2022-12-09T03:14:22.083Z,0
2022-12-09T03:15:25.901Z,0
2022-12-09T03:17:35.816Z,0
2022-12-09T03:18:39.722Z,0
2022-12-09T03:20:47.920Z,0
2022-12-09T03:22:54.830Z,0
2022-12-09T03:25:03.489Z,0
2022-12-09T03:26:06.762Z,0
2022-12-09T03:28:14.511Z,0
2022-12-09T03:30:22.407Z,0
2022-12-09T03:32:31.835Z,0
2022-12-09T03:33:36.407Z,0
2022-12-09T03:35:42.559Z,0
2022-12-09T03:37:50.163Z,0
2022-12-09T03:38:54.287Z,0
2022-12-09T03:39:58.158Z,0
2022-12-09T03:41:03.435Z,0
2022-12-09T03:43:10.977Z,0
2022-12-09T03:44:15.161Z,0
2022-12-09T03:45:18.977Z,0
2022-12-09T03:46:23.765Z,0
2022-12-09T03:48:32.450Z,0
2022-12-09T03:49:35.729Z,0
2022-12-09T03:50:38.751Z,0
2022-12-09T03:51:42.609Z,0
2022-12-09T03:53:50.355Z,0
2022-12-09T03:54:54.091Z,0
2022-12-09T03:57:03.548Z,0
2022-12-09T03:59:10.611Z,0
2022-12-09T04:00:17.057Z,0
2022-12-09T04:01:21.475Z,0
2022-12-09T04:02:27.375Z,0
2022-12-09T04:04:37.569Z,0
2022-12-09T04:06:45.926Z,0
2022-12-09T04:09:04.133Z,0
2022-12-09T04:11:15.964Z,0
2022-12-09T04:12:20.039Z,0
2022-12-09T04:14:27.644Z,0
2022-12-09T04:16:34.843Z,0
2022-12-09T04:18:44.157Z,0
2022-12-09T04:19:48.624Z,0
2022-12-09T04:21:55.309Z,0
2022-12-09T04:24:02.631Z,0
2022-12-09T04:26:09.805Z,0
2022-12-09T04:27:14.074Z,0
2022-12-09T04:28:18.926Z,0
2022-12-09T04:29:22.998Z,0
2022-12-09T04:31:31.135Z,0
2022-12-09T04:33:39.674Z,0
2022-12-09T04:34:42.622Z,0
2022-12-09T04:36:49.343Z,0
2022-12-09T04:38:57.120Z,0
2022-12-09T04:41:05.235Z,0
2022-12-09T04:42:09.355Z,0
2022-12-09T04:44:17.474Z,0
2022-12-09T04:46:25.345Z,0
2022-12-09T04:48:33.109Z,0
2022-12-09T04:49:36.870Z,0
2022-12-09T04:50:40.779Z,0
2022-12-09T04:51:43.949Z,0
2022-12-09T04:53:52.182Z,0
2022-12-09T04:55:59.475Z,0
2022-12-09T04:57:02.625Z,0
2022-12-09T04:58:07.174Z,0
2022-12-09T04:59:11.061Z,0
2022-12-09T05:01:33.906Z,0
2022-12-09T05:03:43.659Z,0
2022-12-09T05:05:53.361Z,0
2022-12-09T05:06:58.740Z,0
2022-12-09T05:09:09.940Z,0
2022-12-09T05:10:17.141Z,0
2022-12-09T05:11:23.061Z,0
2022-12-09T05:13:30.372Z,0
2022-12-09T05:15:39.574Z,0
2022-12-09T05:16:44.626Z,0
2022-12-09T05:18:54.695Z,0
2022-12-09T05:21:03.015Z,0
2022-12-09T05:23:12.564Z,0
2022-12-09T05:24:16.695Z,0
2022-12-09T05:26:25.721Z,0
2022-12-09T05:28:34.010Z,0
2022-12-09T05:30:43.043Z,0
2022-12-09T05:31:47.851Z,0
2022-12-09T05:32:52.304Z,0
2022-12-09T05:33:57.814Z,0
2022-12-09T05:36:05.567Z,0
2022-12-09T05:38:12.860Z,0
2022-12-09T05:39:16.999Z,0
2022-12-09T05:41:26.111Z,0
2022-12-09T05:43:33.954Z,0
2022-12-09T05:45:42.705Z,0
2022-12-09T05:46:48.535Z,0
2022-12-09T05:47:53.495Z,0
2022-12-09T05:48:58.475Z,0
2022-12-09T05:50:14.968Z,0
2022-12-09T05:51:20.555Z,0
2022-12-09T05:53:29.778Z,0
2022-12-09T05:55:40.242Z,0
2022-12-09T05:56:51.936Z,0
2022-12-09T05:57:56.248Z,0
2022-12-09T05:59:00.811Z,0
2022-12-09T06:01:13.193Z,0
2022-12-09T06:03:23.200Z,0
2022-12-09T06:04:29.709Z,0
2022-12-09T06:05:35.252Z,0
2022-12-09T06:06:41.513Z,0
2022-12-09T06:07:47.334Z,0
2022-12-09T06:08:52.164Z,0
2022-12-09T06:11:02.387Z,0
2022-12-09T06:13:11.628Z,0
2022-12-09T06:14:15.616Z,0
2022-12-09T06:15:35.989Z,0
2022-12-09T06:16:42.360Z,0
2022-12-09T06:18:52.994Z,0
2022-12-09T06:21:01.502Z,0
2022-12-09T06:23:09.702Z,0
2022-12-09T06:24:14.246Z,0
2022-12-09T06:25:19.282Z,0
2022-12-09T06:26:23.780Z,0
2022-12-09T06:28:32.647Z,0
2022-12-09T06:30:40.100Z,0
2022-12-09T06:31:44.950Z,0
2022-12-09T06:34:02.889Z,0
2022-12-09T06:35:12.321Z,0
2022-12-09T06:36:16.847Z,0
2022-12-09T06:38:24.909Z,0
2022-12-09T06:40:33.525Z,0
2022-12-09T06:41:37.952Z,0
2022-12-09T06:43:46.809Z,0
2022-12-09T06:45:55.345Z,0
2022-12-09T06:48:05.497Z,0
2022-12-09T06:49:10.364Z,0
2022-12-09T06:51:19.063Z,0
2022-12-09T06:53:27.111Z,0
2022-12-09T06:55:35.642Z,0
2022-12-09T06:56:39.736Z,0
2022-12-09T06:57:44.551Z,0
2022-12-09T06:58:49.851Z,0
2022-12-09T07:00:58.714Z,0
2022-12-09T07:03:10.980Z,0
2022-12-09T07:04:16.899Z,0
2022-12-09T07:05:24.270Z,0
2022-12-09T07:06:30.778Z,0
2022-12-09T07:08:41.070Z,0
2022-12-09T07:11:00.183Z,0
2022-12-09T07:13:09.167Z,1
2022-12-09T07:14:14.143Z,1
2022-12-09T07:16:23.826Z,1
2022-12-09T07:18:34.464Z,1
2022-12-09T07:20:44.053Z,1
2022-12-09T07:21:50.161Z,2
2022-12-09T07:22:54.370Z,2
2022-12-09T07:23:58.318Z,2
2022-12-09T07:26:06.084Z,2
2022-12-09T07:27:21.698Z,2
2022-12-09T07:28:25.561Z,2
2022-12-09T07:29:29.591Z,3
2022-12-09T07:31:39.739Z,3
2022-12-09T07:33:51.736Z,4
2022-12-09T07:36:02.412Z,4
2022-12-09T07:38:10.940Z,4
2022-12-09T07:39:15.442Z,4
2022-12-09T07:41:23.602Z,5
2022-12-09T07:43:31.761Z,5
2022-12-09T07:45:41.812Z,6
2022-12-09T07:46:47.067Z,6
2022-12-09T07:48:58.539Z,7
2022-12-09T07:50:10.487Z,8
2022-12-09T07:51:14.615Z,7
2022-12-09T07:53:23.626Z,8
2022-12-09T07:55:31.258Z,7
2022-12-09T07:56:35.703Z,7
2022-12-09T07:58:46.371Z,9
2022-12-09T08:00:55.295Z,8
2022-12-09T08:02:09.555Z,9
2022-12-09T08:03:14.680Z,8
2022-12-09T08:05:27.442Z,9
2022-12-09T08:06:34.067Z,9
2022-12-09T08:07:48.518Z,9
2022-12-09T08:08:54.948Z,10
2022-12-09T08:11:05.357Z,11
2022-12-09T08:13:15.325Z,10
2022-12-09T08:15:23.259Z,11
2022-12-09T08:16:29.955Z,11
2022-12-09T08:18:40.219Z,11
2022-12-09T08:20:50.442Z,11
2022-12-09T08:21:58.048Z,12
2022-12-09T08:23:03.551Z,13
2022-12-09T08:25:16.443Z,13
2022-12-09T08:26:22.315Z,14
2022-12-09T08:28:32.368Z,16
2022-12-09T08:30:42.431Z,17
2022-12-09T08:31:49.049Z,17
2022-12-09T08:32:54.797Z,19
2022-12-09T08:35:07.360Z,21
2022-12-09T08:36:11.595Z,24
2022-12-09T08:38:19.831Z,24
2022-12-09T08:40:30.196Z,22
2022-12-09T08:42:38.608Z,21
2022-12-09T08:43:43.614Z,20
2022-12-09T08:45:52.424Z,22
2022-12-09T08:48:02.908Z,27
2022-12-09T08:49:09.150Z,26
2022-12-09T08:50:18.223Z,29
2022-12-09T08:52:27.570Z,28
2022-12-09T08:53:32.271Z,24
2022-12-09T08:55:40.813Z,31
2022-12-09T08:57:50.070Z,27
2022-12-09T08:59:58.468Z,29
2022-12-09T09:01:03.944Z,30
2022-12-09T09:02:10.051Z,37
2022-12-09T09:03:15.622Z,31
2022-12-09T09:04:22.873Z,36
2022-12-09T09:05:29.878Z,35
2022-12-09T09:06:36.243Z,36
2022-12-09T09:07:42.663Z,36
2022-12-09T09:09:54.858Z,45
2022-12-09T09:11:00.962Z,48
2022-12-09T09:13:10.928Z,42
2022-12-09T09:15:20.775Z,38
2022-12-09T09:17:31.644Z,47
2022-12-09T09:18:37.621Z,59
2022-12-09T09:20:48.326Z,50
2022-12-09T09:23:07.556Z,48
2022-12-09T09:25:19.145Z,40
2022-12-09T09:27:29.034Z,47
2022-12-09T09:28:35.484Z,44
2022-12-09T09:30:44.771Z,42
2022-12-09T09:32:56.062Z,45
2022-12-09T09:34:03.002Z,42
2022-12-09T09:35:08.719Z,61
2022-12-09T09:36:14.872Z,44
2022-12-09T09:38:23.142Z,68
2022-12-09T09:40:33.212Z,48
2022-12-09T09:41:38.584Z,44
2022-12-09T09:43:47.177Z,51
2022-12-09T09:45:56.991Z,57
2022-12-09T09:47:02.872Z,76
2022-12-09T09:48:08.111Z,60
2022-12-09T09:49:13.145Z,50
2022-12-09T09:50:20.477Z,55
2022-12-09T09:51:26.038Z,53
2022-12-09T09:52:31.050Z,63
2022-12-09T09:54:40.081Z,52
2022-12-09T09:55:46.080Z,50
2022-12-09T09:57:55.003Z,44
2022-12-09T10:00:16.050Z,52
2022-12-09T10:01:24.011Z,61
2022-12-09T10:02:30.881Z,59
2022-12-09T10:03:38.170Z,53
2022-12-09T10:04:45.290Z,47
2022-12-09T10:05:51.761Z,41
2022-12-09T10:07:07.888Z,36
2022-12-09T10:08:15.364Z,45
2022-12-09T10:09:21.717Z,48
2022-12-09T10:10:28.399Z,47
2022-12-09T10:11:36.349Z,53
2022-12-09T10:12:43.105Z,50
2022-12-09T10:13:50.524Z,50
2022-12-09T10:14:57.003Z,46
2022-12-09T10:16:03.231Z,55
2022-12-09T10:17:10.607Z,53
2022-12-09T10:18:16.837Z,50
2022-12-09T10:19:22.605Z,46
2022-12-09T10:20:29.649Z,41
2022-12-09T10:21:34.088Z,39
2022-12-09T10:23:44.220Z,42
2022-12-09T10:24:49.377Z,41
2022-12-09T10:26:59.303Z,39
2022-12-09T10:29:07.709Z,53
2022-12-09T10:30:15.711Z,53
2022-12-09T10:31:21.089Z,41
2022-12-09T10:32:26.536Z,40
2022-12-09T10:34:37.383Z,44
2022-12-09T10:35:43.325Z,49
2022-12-09T10:36:48.062Z,64
2022-12-09T10:37:53.545Z,52
2022-12-09T10:40:04.116Z,56
2022-12-09T10:42:13.519Z,63
2022-12-09T10:43:18.416Z,53
2022-12-09T10:46:22.830Z,51
2022-12-09T10:47:30.842Z,49
2022-12-09T10:48:39.571Z,62
2022-12-09T10:49:44.220Z,58
2022-12-09T10:50:51.034Z,54
2022-12-09T10:51:57.367Z,57
2022-12-09T10:53:02.359Z,55
2022-12-09T10:55:11.913Z,43
2022-12-09T10:56:16.121Z,45
2022-12-09T10:58:24.947Z,52
2022-12-09T11:00:38.391Z,74
2022-12-09T11:01:43.735Z,93
2022-12-09T11:03:53.597Z,100
2022-12-09T11:05:00.071Z,98
2022-12-09T11:06:07.267Z,90
2022-12-09T11:08:21.026Z,79
2022-12-09T11:09:27.026Z,67
2022-12-09T11:10:33.704Z,61
2022-12-09T11:11:39.574Z,58
2022-12-09T11:12:46.532Z,58
2022-12-09T11:13:51.252Z,60
2022-12-09T11:16:02.069Z,60
2022-12-09T11:17:07.184Z,59
2022-12-09T11:19:19.165Z,58
2022-12-09T11:20:26.395Z,56
2022-12-09T11:21:32.539Z,66
2022-12-09T11:23:44.723Z,65
2022-12-09T11:24:49.818Z,61
2022-12-09T11:27:00.617Z,66
2022-12-09T11:28:05.398Z,67
2022-12-09T11:30:21.870Z,64
2022-12-09T11:31:38.939Z,54
2022-12-09T11:32:44.032Z,51
2022-12-09T11:33:50.086Z,55
2022-12-09T11:34:55.991Z,57
2022-12-09T11:36:01.855Z,59
2022-12-09T11:38:08.961Z,58
2022-12-09T11:39:12.668Z,57
2022-12-09T11:41:18.545Z,54
2022-12-09T11:43:25.012Z,58
2022-12-09T11:44:28.071Z,58
2022-12-09T11:45:31.472Z,57
2022-12-09T11:46:34.689Z,57
2022-12-09T11:48:44.666Z,57
2022-12-09T11:49:48.055Z,53
2022-12-09T11:51:54.554Z,51
2022-12-09T11:52:57.572Z,49
2022-12-09T11:54:05.835Z,43
2022-12-09T11:55:09.267Z,39
2022-12-09T11:57:15.358Z,42
2022-12-09T11:58:18.444Z,44
2022-12-09T12:00:24.373Z,41
2022-12-09T12:02:31.064Z,40
2022-12-09T12:03:34.385Z,39
2022-12-09T12:04:37.369Z,42
2022-12-09T12:05:40.824Z,44
2022-12-09T12:06:43.836Z,41
2022-12-09T12:08:49.930Z,41
2022-12-09T12:10:56.258Z,44
2022-12-09T12:11:59.686Z,45
2022-12-09T12:14:05.624Z,52
2022-12-09T12:16:11.496Z,50
2022-12-09T12:17:14.773Z,53
2022-12-09T12:19:21.198Z,51
2022-12-09T12:21:27.563Z,51
2022-12-09T12:22:31.268Z,53
2022-12-09T12:24:37.921Z,56
2022-12-09T12:26:44.890Z,52
2022-12-09T12:27:47.767Z,51
2022-12-09T12:29:08.996Z,48
2022-12-09T12:30:12.809Z,48
2022-12-09T12:32:18.689Z,46
2022-12-09T12:34:28.998Z,47
2022-12-09T12:35:42.178Z,48
2022-12-09T12:36:45.215Z,47
2022-12-09T12:38:51.080Z,46
2022-12-09T12:39:54.830Z,45
2022-12-09T12:42:01.752Z,44
2022-12-09T12:44:07.581Z,40
2022-12-09T12:45:10.938Z,39
2022-12-09T12:47:17.945Z,38
2022-12-09T12:49:24.140Z,38
2022-12-09T12:50:27.188Z,37
2022-12-09T12:53:03.492Z,34
2022-12-09T12:54:06.568Z,34
2022-12-09T12:55:10.063Z,35
2022-12-09T12:56:13.138Z,35
2022-12-09T12:58:19.834Z,31
2022-12-09T12:59:22.818Z,33
2022-12-09T13:01:29.539Z,30
2022-12-09T13:02:33.358Z,29
2022-12-09T13:04:38.846Z,30
2022-12-09T13:06:44.596Z,29
2022-12-09T13:07:48.805Z,29
2022-12-09T13:09:55.913Z,28
2022-12-09T13:12:01.819Z,28
2022-12-09T13:13:05.553Z,27
2022-12-09T13:15:12.627Z,22
2022-12-09T13:17:19.950Z,21
2022-12-09T13:18:23.303Z,22
2022-12-09T13:19:26.733Z,24
2022-12-09T13:20:29.787Z,24
2022-12-09T13:22:35.803Z,25
2022-12-09T13:23:38.791Z,25
2022-12-09T13:25:45.791Z,23
2022-12-09T13:27:52.408Z,21
2022-12-09T13:28:56.135Z,22
2022-12-09T13:31:03.342Z,21
2022-12-09T13:32:06.688Z,20
2022-12-09T13:34:13.524Z,20
2022-12-09T13:36:19.906Z,22
2022-12-09T13:37:22.674Z,21
2022-12-09T13:39:29.663Z,21
2022-12-09T13:41:35.613Z,20
2022-12-09T13:42:48.655Z,20
2022-12-09T13:43:52.104Z,20
2022-12-09T13:44:55.663Z,20
2022-12-09T13:47:02.701Z,20
2022-12-09T13:48:06.105Z,20
2022-12-09T13:49:09.078Z,19
2022-12-09T13:50:13.000Z,19
2022-12-09T13:52:19.562Z,18
2022-12-09T13:53:22.594Z,17
2022-12-09T13:55:28.709Z,16
2022-12-09T13:57:35.544Z,15
2022-12-09T13:59:42.044Z,14
2022-12-09T14:00:46.030Z,14
2022-12-09T14:02:53.662Z,13
2022-12-09T14:03:57.299Z,13
2022-12-09T14:04:59.998Z,12
2022-12-09T14:06:03.153Z,11
2022-12-09T14:08:14.564Z,11
2022-12-09T14:09:18.008Z,11
2022-12-09T14:11:23.792Z,10
2022-12-09T14:13:29.673Z,10
2022-12-09T14:14:33.367Z,9
2022-12-09T14:16:40.213Z,8
2022-12-09T14:18:46.624Z,7
2022-12-09T14:19:49.742Z,7
2022-12-09T14:21:55.957Z,7
2022-12-09T14:22:59.396Z,7
2022-12-09T14:25:05.911Z,7
2022-12-09T14:27:12.278Z,6
2022-12-09T14:28:15.643Z,6
2022-12-09T14:30:21.514Z,5
2022-12-09T14:32:29.216Z,5
2022-12-09T14:33:32.012Z,4
2022-12-09T14:35:39.700Z,4
2022-12-09T14:37:45.644Z,4
2022-12-09T14:39:27.036Z,3
2022-12-09T14:40:30.338Z,3
2022-12-09T14:41:33.419Z,3
2022-12-09T14:43:39.978Z,3
2022-12-09T14:44:43.104Z,3
2022-12-09T14:45:46.795Z,2
2022-12-09T14:47:02.160Z,2
2022-12-09T14:49:19.619Z,2
2022-12-09T14:51:25.724Z,2
2022-12-09T14:52:28.709Z,2
2022-12-09T14:54:34.730Z,1
2022-12-09T14:56:41.259Z,1
2022-12-09T14:57:44.993Z,1
2022-12-09T14:59:51.606Z,1
2022-12-09T15:01:58.810Z,1
2022-12-09T15:03:47.535Z,1
2022-12-09T15:04:52.593Z,0
2022-12-09T15:05:55.818Z,0
2022-12-09T15:08:02.290Z,0
2022-12-09T15:10:12.661Z,0
2022-12-09T15:12:18.411Z,0
2022-12-09T15:13:21.272Z,0
2022-12-09T15:15:27.443Z,0
2022-12-09T15:17:35.364Z,0
2022-12-09T15:18:38.788Z,0
2022-12-09T15:20:12.304Z,0
2022-12-09T15:21:16.568Z,0
2022-12-09T15:23:23.414Z,0
2022-12-09T15:24:51.949Z,0
2022-12-09T15:25:54.953Z,0
2022-12-09T15:28:01.784Z,0
2022-12-09T15:30:11.435Z,0
2022-12-09T15:31:14.466Z,0
2022-12-09T15:33:19.970Z,0
2022-12-09T15:34:28.733Z,0
2022-12-09T15:35:31.877Z,0
2022-12-09T15:36:35.434Z,0
2022-12-09T15:38:42.945Z,0
2022-12-09T15:40:49.613Z,0
2022-12-09T15:41:52.962Z,0
2022-12-09T15:43:59.000Z,0
2022-12-09T15:46:06.218Z,0
2022-12-09T15:47:12.736Z,0
2022-12-09T15:49:19.152Z,0
2022-12-09T15:50:22.171Z,0
2022-12-09T15:51:25.507Z,0
2022-12-09T15:52:28.711Z,0
2022-12-09T15:54:35.335Z,0
2022-12-09T15:55:39.047Z,0
2022-12-09T15:57:45.149Z,0
2022-12-09T15:58:48.116Z,0
2022-12-09T15:59:57.489Z,0
2022-12-09T16:01:00.972Z,0
2022-12-09T16:03:08.956Z,0
2022-12-09T16:05:15.330Z,0
2022-12-09T16:06:18.728Z,0
2022-12-09T16:08:25.492Z,0
2022-12-09T16:10:31.002Z,0
2022-12-09T16:11:34.355Z,0
2022-12-09T16:13:39.582Z,0
2022-12-09T16:15:46.782Z,0
2022-12-09T16:16:49.817Z,0
2022-12-09T16:18:56.291Z,0
2022-12-09T16:21:02.934Z,0
2022-12-09T16:22:05.696Z,0
2022-12-09T16:24:12.551Z,0
2022-12-09T16:26:20.434Z,0
2022-12-09T16:27:23.692Z,0
2022-12-09T16:29:29.589Z,0
2022-12-09T16:31:35.739Z,0
2022-12-09T16:32:39.098Z,0
2022-12-09T16:34:45.919Z,0
2022-12-09T16:36:52.447Z,0
2022-12-09T16:37:55.847Z,0
2022-12-09T16:40:02.463Z,0
2022-12-09T16:42:08.953Z,0
2022-12-09T16:43:11.998Z,0
2022-12-09T16:44:15.404Z,0
2022-12-09T16:45:18.339Z,0
2022-12-09T16:47:24.003Z,0
2022-12-09T16:48:27.591Z,0
2022-12-09T16:50:34.968Z,0
2022-12-09T16:52:41.306Z,0
2022-12-09T16:53:45.023Z,0
2022-12-09T16:54:47.816Z,0
2022-12-09T16:55:51.071Z,0
2022-12-09T16:57:57.283Z,0
2022-12-09T16:59:00.324Z,0
2022-12-09T17:00:04.071Z,0
2022-12-09T17:01:07.339Z,0
2022-12-09T17:03:13.469Z,0
2022-12-09T17:04:15.922Z,0
2022-12-09T17:05:19.304Z,0
2022-12-09T17:06:22.560Z,0
2022-12-09T17:08:29.688Z,0
2022-12-09T17:09:33.063Z,0
2022-12-09T17:10:36.093Z,0
2022-12-09T17:11:49.085Z,0
2022-12-09T17:13:54.634Z,0
2022-12-09T17:16:01.600Z,0
2022-12-09T17:17:04.634Z,0
2022-12-09T17:19:09.639Z,0
2022-12-09T17:21:15.810Z,0
2022-12-09T17:23:22.629Z,0
2022-12-09T17:24:26.091Z,0
2022-12-09T17:26:32.377Z,0
2022-12-09T17:28:38.802Z,0
2022-12-09T17:30:44.482Z,0
2022-12-09T17:31:47.016Z,0
2022-12-09T17:33:53.761Z,0
2022-12-09T17:35:59.912Z,0
2022-12-09T17:38:06.453Z,0
2022-12-09T17:39:09.939Z,0
2022-12-09T17:41:17.565Z,0
2022-12-09T17:43:25.057Z,0
2022-12-09T17:45:30.738Z,0
2022-12-09T17:46:34.044Z,0
2022-12-09T17:47:37.468Z,0
2022-12-09T17:48:40.614Z,0
2022-12-09T17:50:45.720Z,0
2022-12-09T17:51:48.800Z,0
2022-12-09T17:52:51.907Z,0
2022-12-09T17:53:55.242Z,0
2022-12-09T17:56:01.692Z,0
2022-12-09T17:57:05.107Z,0
2022-12-09T17:58:07.528Z,0
2022-12-09T17:59:11.254Z,0
2022-12-09T18:01:17.963Z,0
2022-12-09T18:04:08.659Z,0
2022-12-09T18:06:14.534Z,0
2022-12-09T18:08:21.588Z,0
2022-12-09T18:09:25.320Z,0
2022-12-09T18:11:31.093Z,0
2022-12-09T18:13:37.576Z,0
2022-12-09T18:15:43.045Z,0
2022-12-09T18:16:47.273Z,0
2022-12-09T18:18:53.402Z,0
2022-12-09T18:20:58.894Z,0
2022-12-09T18:23:04.395Z,0
2022-12-09T18:24:07.752Z,0
2022-12-09T18:26:13.749Z,0
2022-12-09T18:28:20.235Z,0
2022-12-09T18:30:27.849Z,0
2022-12-09T18:31:31.275Z,0
2022-12-09T18:33:41.074Z,0
2022-12-09T18:35:46.983Z,0
2022-12-09T18:37:52.847Z,0
2022-12-09T18:38:55.659Z,0
2022-12-09T18:41:02.163Z,0
2022-12-09T18:43:08.381Z,0
2022-12-09T18:45:14.013Z,0
2022-12-09T18:46:27.495Z,0
2022-12-09T18:47:30.908Z,0
2022-12-09T18:48:33.135Z,0
2022-12-09T18:50:38.317Z,0
2022-12-09T18:52:44.965Z,0
2022-12-09T18:53:47.760Z,0
2022-12-09T18:55:53.929Z,0
2022-12-09T18:57:59.266Z,0
2022-12-09T18:59:12.086Z,0
2022-12-09T19:00:15.070Z,0
2022-12-09T19:01:18.296Z,0
2022-12-09T19:03:24.476Z,0
2022-12-09T19:05:30.567Z,0
2022-12-09T19:06:33.291Z,0
2022-12-09T19:07:36.656Z,0
2022-12-09T19:08:38.943Z,0
2022-12-09T19:10:45.158Z,0
2022-12-09T19:11:48.264Z,0
2022-12-09T19:12:58.650Z,0
2022-12-09T19:14:01.673Z,0
2022-12-09T19:16:08.905Z,0
2022-12-09T19:18:14.848Z,0
2022-12-09T19:19:17.557Z,0
2022-12-09T19:20:19.981Z,0
2022-12-09T19:21:23.040Z,0
2022-12-09T19:23:28.011Z,0
2022-12-09T19:24:31.067Z,0
2022-12-09T19:25:33.907Z,0
2022-12-09T19:26:36.994Z,0
2022-12-09T19:28:42.701Z,0
2022-12-09T19:29:46.084Z,0
2022-12-09T19:30:52.399Z,0
2022-12-09T19:31:55.762Z,0
2022-12-09T19:34:01.983Z,0
2022-12-09T19:35:04.685Z,0
2022-12-09T19:37:10.192Z,0
2022-12-09T19:39:16.032Z,0
2022-12-09T19:41:22.815Z,0
2022-12-09T19:42:25.081Z,0
2022-12-09T19:45:15.383Z,0
2022-12-09T19:46:18.742Z,0
2022-12-09T19:47:21.711Z,0
2022-12-09T19:49:28.555Z,0
2022-12-09T19:51:34.307Z,0
2022-12-09T19:53:40.332Z,0
2022-12-09T19:54:43.129Z,0
2022-12-09T19:56:48.727Z,0
2022-12-09T19:58:54.701Z,0
2022-12-09T20:01:01.436Z,0
2022-12-09T20:02:04.856Z,0
2022-12-09T20:04:52.714Z,0
2022-12-09T20:05:55.344Z,0
2022-12-09T20:06:58.122Z,0
2022-12-09T20:09:04.135Z,0
2022-12-09T20:11:12.547Z,0
2022-12-09T20:13:18.292Z,0
2022-12-09T20:14:21.048Z,0
2022-12-09T20:16:27.437Z,0
2022-12-09T20:18:33.368Z,0
2022-12-09T20:20:38.279Z,0
2022-12-09T20:21:42.066Z,0
2022-12-09T20:23:47.539Z,0
2022-12-09T20:25:52.549Z,0
2022-12-09T20:27:59.183Z,0
2022-12-09T20:29:01.619Z,0
2022-12-09T20:31:07.209Z,0
2022-12-09T20:33:14.574Z,0
2022-12-09T20:35:19.988Z,0
2022-12-09T20:36:22.687Z,0
2022-12-09T20:38:30.012Z,0
2022-12-09T20:40:42.935Z,0
2022-12-09T20:42:48.518Z,0
2022-12-09T20:43:51.300Z,0
2022-12-09T20:45:57.651Z,0
2022-12-09T20:48:04.744Z,0
2022-12-09T20:49:07.879Z,0
2022-12-09T20:50:11.760Z,0
2022-12-09T20:51:14.180Z,0
2022-12-09T20:53:20.199Z,0
2022-12-09T20:55:26.516Z,0
2022-12-09T20:56:29.893Z,0
2022-12-09T20:58:36.093Z,0
2022-12-09T21:00:42.055Z,0
2022-12-09T21:02:48.314Z,0
2022-12-09T21:03:52.490Z,0
2022-12-09T21:05:58.329Z,0
2022-12-09T21:08:04.383Z,0
2022-12-09T21:09:07.858Z,0
2022-12-09T21:10:12.596Z,0
2022-12-09T21:11:15.731Z,0
2022-12-09T21:13:21.269Z,0
2022-12-09T21:14:33.778Z,0
2022-12-09T21:15:36.272Z,0
2022-12-09T21:16:40.038Z,0
2022-12-09T21:18:46.874Z,0
2022-12-09T21:20:52.932Z,0
2022-12-09T21:23:36.528Z,0
2022-12-09T21:25:41.911Z,0
2022-12-09T21:26:45.253Z,0
2022-12-09T21:27:48.617Z,0
2022-12-09T21:28:51.321Z,0
2022-12-09T21:30:57.052Z,0
2022-12-09T21:32:00.683Z,0
2022-12-09T21:33:04.772Z,0
2022-12-09T21:34:07.572Z,0
2022-12-09T21:36:13.526Z,0
2022-12-09T21:38:19.082Z,0
2022-12-09T21:39:22.343Z,0
2022-12-09T21:41:28.652Z,0
2022-12-09T21:43:34.098Z,0
2022-12-09T21:45:40.366Z,0
2022-12-09T21:46:43.440Z,0
2022-12-09T21:49:05.199Z,0
2022-12-09T21:50:10.697Z,0
2022-12-09T21:51:13.851Z,0
2022-12-09T21:53:20.023Z,0
2022-12-09T21:55:26.030Z,0
2022-12-09T21:56:29.472Z,0
2022-12-09T21:58:35.686Z,0
2022-12-09T22:00:41.613Z,0
2022-12-09T22:02:49.001Z,0
2022-12-09T22:03:52.357Z,0
2022-12-09T22:05:59.999Z,0
2022-12-09T22:08:06.796Z,0
2022-12-09T22:10:12.766Z,0
2022-12-09T22:11:16.091Z,0
2022-12-09T22:13:23.033Z,0
2022-12-09T22:15:29.454Z,0
2022-12-09T22:16:33.171Z,0
2022-12-09T22:17:36.273Z,0
2022-12-09T22:18:39.067Z,0
2022-12-09T22:21:31.565Z,0
2022-12-09T22:22:35.543Z,0
2022-12-09T22:23:39.230Z,0
2022-12-09T22:25:45.162Z,0
2022-12-09T22:27:04.046Z,0
2022-12-09T22:28:07.028Z,0
2022-12-09T22:29:10.373Z,0
2022-12-09T22:30:12.789Z,0
2022-12-09T22:31:16.451Z,0
2022-12-09T22:33:22.998Z,0
2022-12-09T22:35:29.055Z,0
2022-12-09T22:36:31.879Z,0
2022-12-09T22:37:45.884Z,0
2022-12-09T22:38:50.562Z,0
2022-12-09T22:40:56.954Z,0
2022-12-09T22:43:01.914Z,0
2022-12-09T22:44:05.760Z,0
2022-12-09T22:45:08.809Z,0
2022-12-09T22:46:12.379Z,0
2022-12-09T22:48:18.527Z,0
2022-12-09T22:50:25.489Z,0
2022-12-09T22:51:28.526Z,0
2022-12-09T22:52:31.762Z,0
2022-12-09T22:53:34.637Z,0
2022-12-09T22:55:40.395Z,0
2022-12-09T22:56:43.498Z,0
2022-12-09T22:57:46.198Z,0
2022-12-09T22:58:49.119Z,0
2022-12-09T23:00:55.728Z,0
